M I D A S
Marine Information and Data Acquisition System
Tripno 1773 of the Zeeleeuw from 2009-09-09 06:36:56 to 2009-09-09 15:09:02
Back to CruiseResearch ActivitiesStationsMapUnderway DataData graphs

EquipmentUnitsComments
TimeDGPSUTC
LatitudeDGPSDM.mWGS84
LongitudeDGPSDM.mWGS84
SpeedMeteo Stationm/sRelative wind speed
DirectionMeteo StationdegRelative wind direction
TemperatureMeteo Stationdeg CelciusAir temperature
PressureMeteo StationPaAtmospheric pressure
HumidityMeteo Station%Relative humidity
Missing or incorrect values are displayed as -999
Metereological data collected by the RV Zeeleeuw from 2009-09-09 06:28:54 to 2009-09-09 15:19:10
Time Latitude Longitude Speed Direction Temperature Pressure Humidity
2009-09-09 06:30 51°13.68 2°55.882 6.4 266 17.5 102400 50
2009-09-09 06:31 51°13.715 2°55.79 8.4 27 17.6 102390 49
2009-09-09 06:32 51°13.746 2°55.741 7.1 22 17.6 102380 50
2009-09-09 06:33 51°13.796 2°55.676 7.2 22 17.6 102390 50
2009-09-09 06:34 51°13.857 2°55.626 8.2 20 17.5 102400 49
2009-09-09 06:35 51°13.903 2°55.632 8.2 29 17.6 102390 50
2009-09-09 06:36 51°13.907 2°55.624 6 30 17.6 102380 49
2009-09-09 06:36 51°13.907 2°55.623 7.7 10 17.6 102370 48
2009-09-09 06:37 51°13.966 2°55.547 8.8 347 17.6 102380 48
2009-09-09 06:38 51°14.078 2°55.443 9.8 344 17.6 102360 49
2009-09-09 06:39 51°14.202 2°55.324 9.8 348 17.6 102370 49
2009-09-09 06:40 51°14.3 2°55.154 11.1 356 17.6 102360 50
2009-09-09 06:41 51°14.382 2°54.938 9.6 357 17.5 102350 49
2009-09-09 06:42 51°14.392 2°54.656 8.3 16 17.5 102370 49
2009-09-09 06:43 51°14.321 2°54.356 7.3 15 17.5 102400 49
2009-09-09 06:44 51°14.247 2°54.066 7.6 18 17.5 102400 49
2009-09-09 06:45 51°14.173 2°53.775 6.1 23 17.5 102390 49
2009-09-09 06:46 51°14.086 2°53.484 6 14 17.5 102400 48
2009-09-09 06:47 51°13.98 2°53.218 6.8 26 17.5 102400 50
2009-09-09 06:48 51°13.877 2°52.957 6.4 18 17.5 102400 48
2009-09-09 06:49 51°13.783 2°52.674 8.2 21 17.5 102400 50
2009-09-09 06:50 51°13.695 2°52.396 8 23 17.5 102400 49
2009-09-09 06:51 51°13.602 2°52.112 6.4 26 17.5 102410 49
2009-09-09 06:52 51°13.478 2°51.874 6.8 33 17.5 102410 49
2009-09-09 06:53 51°13.323 2°51.667 3.4 40 17.4 102410 49
2009-09-09 06:54 51°13.152 2°51.592 6.1 21 17.5 102420 48
2009-09-09 06:55 51°13.052 2°51.587 8.4 28 17.5 102400 48
2009-09-09 06:56 51°12.987 2°51.543 7.1 76 17.6 102420 49
2009-09-09 06:57 51°12.939 2°51.473 7.1 27 17.6 102420 49
2009-09-09 06:58 51°12.9 2°51.402 7.2 39 17.7 102430 48
2009-09-09 06:59 51°12.863 2°51.335 8.5 38 17.7 102420 49
2009-09-09 07:00 51°12.833 2°51.258 8.9 25 17.6 102420 48
2009-09-09 07:01 51°12.813 2°51.156 9.8 25 17.6 102420 48
2009-09-09 07:02 51°12.8 2°51.046 8.6 23 17.5 102430 48
2009-09-09 07:03 51°12.786 2°50.936 8.6 27 17.5 102430 48
2009-09-09 07:04 51°12.76 2°50.83 7.5 30 17.6 102420 48
2009-09-09 07:05 51°12.73 2°50.732 8.2 34 17.6 102430 49
2009-09-09 07:06 51°12.692 2°50.644 8.3 38 17.6 102420 48
2009-09-09 07:07 51°12.652 2°50.559 8.8 38 17.6 102430 47
2009-09-09 07:08 51°12.611 2°50.472 7.8 34 17.6 102430 48
2009-09-09 07:09 51°12.571 2°50.384 7.3 36 17.6 102430 47
2009-09-09 07:10 51°12.532 2°50.296 7.2 36 17.6 102430 48
2009-09-09 07:11 51°12.494 2°50.209 7.5 35 17.5 102440 47
2009-09-09 07:12 51°12.456 2°50.124 8.5 35 17.6 102430 48
2009-09-09 07:13 51°12.421 2°50.041 8.5 36 17.6 102430 48
2009-09-09 07:14 51°12.387 2°49.955 8.1 38 17.6 102440 48
2009-09-09 07:15 51°12.353 2°49.87 8.6 35 17.6 102440 47
2009-09-09 07:16 51°12.319 2°49.782 8.7 34 17.5 102440 47
2009-09-09 07:17 51°12.286 2°49.696 8.4 35 17.6 102430 48
2009-09-09 07:18 51°12.253 2°49.611 8.7 38 17.6 102440 46
2009-09-09 07:19 51°12.219 2°49.527 7.2 36 17.6 102440 47
2009-09-09 07:20 51°12.185 2°49.439 6.8 32 17.7 102450 48
2009-09-09 07:21 51°12.151 2°49.354 7.1 36 17.6 102450 47
2009-09-09 07:22 51°12.116 2°49.269 7 35 17.7 102450 48
2009-09-09 07:23 51°12.083 2°49.185 9 35 17.7 102450 48
2009-09-09 07:24 51°12.049 2°49.096 8.5 34 17.6 102460 46
2009-09-09 07:25 51°12.015 2°49.01 7.8 35 17.6 102450 47
2009-09-09 07:26 51°11.982 2°48.925 8.3 35 17.7 102450 47
2009-09-09 07:27 51°11.948 2°48.839 6.7 36 17.7 102450 48
2009-09-09 07:28 51°11.913 2°48.753 7.3 34 17.6 102460 46
2009-09-09 07:29 51°11.882 2°48.666 8 37 17.6 102460 46
2009-09-09 07:30 51°11.853 2°48.578 8.8 27 17.6 102460 47
2009-09-09 07:31 51°11.833 2°48.491 8.8 26 17.6 102460 47
2009-09-09 07:32 51°11.818 2°48.405 9.3 24 17.6 102460 47
2009-09-09 07:33 51°11.808 2°48.319 10.2 14 17.6 102470 47
2009-09-09 07:34 51°11.8 2°48.251 10.5 13 17.5 102460 47
2009-09-09 07:35 51°11.788 2°48.2 10.6 10 17.6 102460 47
2009-09-09 07:36 51°11.795 2°48.137 10.3 278 17.5 102460 46
2009-09-09 07:37 51°11.838 2°48.146 14.2 282 17.5 102440 47
2009-09-09 07:38 51°11.921 2°48.295 14.6 283 17.5 102410 47
2009-09-09 07:39 51°12.025 2°48.474 14.4 278 17.6 102420 46
2009-09-09 07:40 51°12.123 2°48.663 13.4 284 17.6 102430 47
2009-09-09 07:41 51°12.222 2°48.854 15.1 284 17.7 102430 47
2009-09-09 07:42 51°12.317 2°49.038 14.3 282 17.6 102430 46
2009-09-09 07:43 51°12.413 2°49.224 14 281 17.7 102420 46
2009-09-09 07:44 51°12.513 2°49.416 15.9 283 17.7 102430 47
2009-09-09 07:45 51°12.612 2°49.603 12.6 280 17.6 102430 46
2009-09-09 07:46 51°12.707 2°49.789 13.9 281 17.6 102430 47
2009-09-09 07:47 51°12.803 2°49.976 13.3 284 17.6 102420 46
2009-09-09 07:48 51°12.897 2°50.161 14.8 282 17.6 102440 46
2009-09-09 07:49 51°12.994 2°50.346 14.9 281 17.7 102430 46
2009-09-09 07:50 51°13.088 2°50.534 13.8 320 17.8 102440 47
2009-09-09 07:51 51°13.182 2°50.72 14.6 317 17.7 102430 46
2009-09-09 07:52 51°13.263 2°50.922 15.3 317 17.7 102450 46
2009-09-09 07:53 51°13.342 2°51.117 14.1 319 17.7 102450 46
2009-09-09 07:54 51°13.381 2°51.2 10.6 316 17.7 102460 46
2009-09-09 07:55 51°13.377 2°51.198 8.1 26 17.7 102470 46
2009-09-09 07:56 51°13.357 2°51.179 9.9 24 17.7 102470 46
2009-09-09 07:57 51°13.332 2°51.152 8.9 257 17.7 102470 46
2009-09-09 07:58 51°13.307 2°51.119 7.6 278 17.7 102480 46
2009-09-09 07:59 51°13.282 2°51.086 6.6 263 17.6 102490 46
2009-09-09 08:00 51°13.257 2°51.053 8.5 280 17.7 102490 46
2009-09-09 08:01 51°13.233 2°51.019 11 257 17.7 102480 45
2009-09-09 08:02 51°13.208 2°50.986 8.3 262 17.7 102490 46
2009-09-09 08:03 51°13.166 2°50.983 7.3 27 17.8 102490 46
2009-09-09 08:04 51°13.096 2°50.913 8.5 32 17.8 102520 46
2009-09-09 08:05 51°13.026 2°50.694 7.5 28 17.8 102510 45
2009-09-09 08:06 51°12.926 2°50.414 6.3 23 17.7 102510 45
2009-09-09 08:07 51°12.819 2°50.133 6.8 29 17.7 102510 45
2009-09-09 08:08 51°12.706 2°49.862 5.8 28 17.7 102520 45
2009-09-09 08:09 51°12.585 2°49.596 8.5 28 17.7 102530 47
2009-09-09 08:10 51°12.466 2°49.329 6.8 25 17.6 102520 46
2009-09-09 08:11 51°12.361 2°49.05 8.1 24 17.7 102510 47
2009-09-09 08:12 51°12.262 2°48.766 6.1 22 17.7 102520 46
2009-09-09 08:13 51°12.159 2°48.483 7.2 24 17.7 102520 47
2009-09-09 08:14 51°12.055 2°48.201 7.9 17 17.7 102530 46
2009-09-09 08:15 51°11.953 2°47.919 6.1 23 17.6 102520 46
2009-09-09 08:16 51°11.851 2°47.638 6.5 23 17.6 102530 46
2009-09-09 08:17 51°11.749 2°47.356 6.8 24 17.6 102530 47
2009-09-09 08:18 51°11.645 2°47.076 7.4 15 17.7 102530 47
2009-09-09 08:19 51°11.542 2°46.795 6.9 26 17.6 102530 46
2009-09-09 08:20 51°11.44 2°46.513 3.3 23 17.6 102540 46
2009-09-09 08:21 51°11.336 2°46.236 7.2 23 17.6 102540 46
2009-09-09 08:22 51°11.235 2°45.958 6.9 19 17.6 102540 45
2009-09-09 08:23 51°11.133 2°45.678 5.3 24 17.6 102540 45
2009-09-09 08:24 51°11.032 2°45.396 6.8 22 17.6 102550 46
2009-09-09 08:25 51°10.928 2°45.119 6.5 23 17.6 102550 46
2009-09-09 08:26 51°10.826 2°44.845 7.8 25 17.6 102550 46
2009-09-09 08:27 51°10.759 2°44.665 8.4 29 17.6 102550 47
2009-09-09 08:28 51°10.724 2°44.553 7.7 30 17.6 102550 47
2009-09-09 08:29 51°10.706 2°44.44 9.9 21 17.6 102550 45
2009-09-09 08:30 51°10.696 2°44.331 10.2 23 17.5 102550 46
2009-09-09 08:31 51°10.682 2°44.222 9.1 27 17.5 102550 45
2009-09-09 08:32 51°10.668 2°44.114 10 24 17.5 102550 46
2009-09-09 08:33 51°10.655 2°44.018 8.5 24 17.5 102540 46
2009-09-09 08:34 51°10.643 2°43.927 10.2 28 17.5 102540 47
2009-09-09 08:35 51°10.633 2°43.833 10.5 23 17.6 102540 46
2009-09-09 08:36 51°10.619 2°43.738 11.1 20 17.5 102540 46
2009-09-09 08:37 51°10.605 2°43.643 10.5 28 17.5 102540 46
2009-09-09 08:38 51°10.588 2°43.548 8.6 32 17.5 102540 45
2009-09-09 08:39 51°10.567 2°43.451 8.5 25 17.5 102540 46
2009-09-09 08:40 51°10.546 2°43.354 8.5 30 17.5 102540 46
2009-09-09 08:41 51°10.52 2°43.258 10.1 30 17.5 102540 45
2009-09-09 08:42 51°10.497 2°43.16 10 30 17.5 102550 47
2009-09-09 08:43 51°10.47 2°43.065 9.6 29 17.5 102540 45
2009-09-09 08:44 51°10.445 2°42.97 9.9 33 17.5 102540 47
2009-09-09 08:45 51°10.419 2°42.874 9.3 31 17.4 102550 46
2009-09-09 08:46 51°10.395 2°42.778 8.9 30 17.4 102550 46
2009-09-09 08:47 51°10.373 2°42.681 11.3 29 17.5 102550 46
2009-09-09 08:48 51°10.35 2°42.586 9.8 28 17.4 102560 46
2009-09-09 08:49 51°10.326 2°42.492 9.3 31 17.5 102550 45
2009-09-09 08:50 51°10.302 2°42.394 8.6 27 17.4 102550 45
2009-09-09 08:51 51°10.278 2°42.296 9.2 34 17.4 102560 46
2009-09-09 08:52 51°10.254 2°42.2 9.6 28 17.5 102560 46
2009-09-09 08:53 51°10.231 2°42.104 9.7 31 17.5 102560 46
2009-09-09 08:54 51°10.207 2°42.008 10.3 32 17.5 102560 46
2009-09-09 08:55 51°10.185 2°41.911 8.5 29 17.4 102570 45
2009-09-09 08:56 51°10.162 2°41.815 8.2 31 17.5 102560 46
2009-09-09 08:57 51°10.138 2°41.719 11.1 34 17.4 102560 46
2009-09-09 08:58 51°10.116 2°41.621 7.7 35 17.4 102570 45
2009-09-09 08:59 51°10.096 2°41.524 7.7 28 17.5 102570 47
2009-09-09 09:00 51°10.082 2°41.429 7.2 29 17.6 102560 46
2009-09-09 09:01 51°10.071 2°41.338 8.1 26 17.5 102560 46
2009-09-09 09:02 51°10.065 2°41.25 9.1 16 17.6 102560 47
2009-09-09 09:03 51°10.062 2°41.17 9.7 13 17.6 102570 46
2009-09-09 09:05 51°10.086 2°41.047 10.5 11 17.5 102570 46
2009-09-09 09:05 51°10.093 2°40.968 9.7 12 17.4 102570 46
2009-09-09 09:07 51°10.086 2°40.907 9.8 9 17.5 102590 46
2009-09-09 09:07 51°10.09 2°40.843 10.4 351 17.4 102580 45
2009-09-09 09:08 51°10.119 2°40.835 11.3 28 17.4 102580 45
2009-09-09 09:09 51°10.122 2°40.947 10.9 24 17.5 102550 45
2009-09-09 09:11 51°10.134 2°41.157 12.1 28 17.5 102570 46
2009-09-09 09:12 51°10.132 2°41.403 12.2 28 17.5 102560 45
2009-09-09 09:12 51°10.129 2°41.649 13 25 17.6 102560 45
2009-09-09 09:14 51°10.126 2°41.904 12.8 26 17.6 102560 46
2009-09-09 09:14 51°10.123 2°42.152 13.1 22 17.6 102560 46
2009-09-09 09:15 51°10.121 2°42.327 10.6 25 17.6 102580 46
2009-09-09 09:16 51°10.098 2°42.357 10.5 260 17.6 102590 45
2009-09-09 09:17 51°10.074 2°42.338 7 263 17.6 102610 46
2009-09-09 09:18 51°10.053 2°42.314 9.1 258 17.7 102610 45
2009-09-09 09:19 51°10.034 2°42.287 10.7 256 17.8 102610 46
2009-09-09 09:20 51°10.014 2°42.261 9.1 253 17.8 102610 44
2009-09-09 09:21 51°9.993 2°42.235 8.1 252 17.7 102610 45
2009-09-09 09:23 51°9.973 2°42.208 10.8 250 17.8 102610 46
2009-09-09 09:23 51°9.953 2°42.183 8.7 252 17.8 102610 46
2009-09-09 09:25 51°9.932 2°42.156 11.8 22 17.8 102610 46
2009-09-09 09:25 51°9.91 2°42.13 11 254 17.7 102600 45
2009-09-09 09:26 51°9.885 2°42.114 6.5 262 17.6 102610 45
2009-09-09 09:27 51°9.822 2°42.095 6.6 20 17.6 102620 45
2009-09-09 09:29 51°9.79 2°41.966 11.7 17 17.6 102600 44
2009-09-09 09:29 51°9.814 2°41.768 13.4 6 17.6 102590 45
2009-09-09 09:30 51°9.855 2°41.48 9.2 9 17.5 102590 45
2009-09-09 09:31 51°9.872 2°41.173 9.8 11 17.5 102600 46
2009-09-09 09:32 51°9.883 2°40.859 10.1 7 17.5 102600 45
2009-09-09 09:33 51°9.895 2°40.543 8.1 8 17.5 102600 45
2009-09-09 09:34 51°9.907 2°40.223 10.4 10 17.5 102590 46
2009-09-09 09:35 51°9.921 2°39.902 10.1 8 17.4 102600 46
2009-09-09 09:36 51°9.937 2°39.585 10.3 11 17.5 102600 45
2009-09-09 09:37 51°9.954 2°39.262 8.4 8 17.4 102600 46
2009-09-09 09:39 51°9.967 2°38.932 9.7 5 17.4 102600 46
2009-09-09 09:39 51°9.981 2°38.613 11.1 9 17.4 102600 46
2009-09-09 09:41 51°9.996 2°38.281 9.1 8 17.4 102600 45
2009-09-09 09:41 51°10.009 2°37.959 10.1 8 17.4 102610 46
2009-09-09 09:43 51°10.022 2°37.629 8.8 6 17.4 102600 45
2009-09-09 09:43 51°10.035 2°37.308 11.8 8 17.4 102600 45
2009-09-09 09:44 51°10.075 2°36.995 10.9 3 17.4 102600 45
2009-09-09 09:46 51°10.15 2°36.7 10.2 2 17.3 102590 46
2009-09-09 09:46 51°10.242 2°36.443 12.7 356 17.4 102600 46
2009-09-09 09:48 51°10.389 2°36.319 13.8 339 17.4 102590 45
2009-09-09 09:48 51°10.532 2°36.385 14.5 329 17.4 102610 45
2009-09-09 09:50 51°10.675 2°36.5 15.7 331 17.4 102610 45
2009-09-09 09:50 51°10.821 2°36.584 14.4 331 17.4 102620 45
2009-09-09 09:52 51°10.97 2°36.662 14.5 332 17.4 102610 44
2009-09-09 09:53 51°11.115 2°36.745 14 332 17.5 102610 44
2009-09-09 09:54 51°11.261 2°36.817 13.4 332 17.4 102610 45
2009-09-09 09:54 51°11.411 2°36.87 14.3 332 17.5 102610 44
2009-09-09 09:55 51°11.561 2°36.93 16.2 333 17.5 102620 46
2009-09-09 09:57 51°11.715 2°36.989 15.1 336 17.5 102610 44
2009-09-09 09:57 51°11.864 2°37.047 15 333 17.5 102610 45
2009-09-09 09:59 51°12.019 2°37.108 14.5 333 17.6 102620 45
2009-09-09 09:59 51°12.17 2°37.156 15.9 335 17.5 102610 45
2009-09-09 10:00 51°12.331 2°37.163 14.1 335 17.5 102620 44
2009-09-09 10:02 51°12.492 2°37.166 15.7 336 17.4 102620 44
2009-09-09 10:02 51°12.651 2°37.181 14.4 333 17.4 102610 44
2009-09-09 10:03 51°12.807 2°37.219 14.3 333 17.4 102620 44
2009-09-09 10:05 51°12.963 2°37.259 14.5 332 17.4 102610 45
2009-09-09 10:06 51°13.121 2°37.298 14.2 331 17.4 102610 45
2009-09-09 10:07 51°13.28 2°37.338 13.4 331 17.4 102620 45
2009-09-09 10:08 51°13.443 2°37.363 12.8 336 17.4 102610 45
2009-09-09 10:08 51°13.603 2°37.299 14.6 343 17.4 102600 43
2009-09-09 10:10 51°13.767 2°37.181 14 344 17.4 102610 44
2009-09-09 10:11 51°13.92 2°37.037 14.7 346 17.3 102620 44
2009-09-09 10:12 51°14.072 2°36.885 12.9 346 17.3 102610 45
2009-09-09 10:13 51°14.216 2°36.723 13.6 345 17.3 102600 45
2009-09-09 10:13 51°14.346 2°36.525 13.3 352 17.2 102620 45
2009-09-09 10:14 51°14.466 2°36.329 11.9 351 17.2 102600 44
2009-09-09 10:16 51°14.65 2°36.083 13.5 344 17.2 102610 43
2009-09-09 10:17 51°14.811 2°35.999 14.2 339 17.2 102620 43
2009-09-09 10:18 51°14.976 2°35.936 13.5 342 17.4 102620 44
2009-09-09 10:19 51°15.135 2°35.871 15.7 339 17.4 102630 44
2009-09-09 10:20 51°15.301 2°35.805 12.8 338 17.4 102630 44
2009-09-09 10:21 51°15.458 2°35.739 14.5 338 17.5 102640 44
2009-09-09 10:22 51°15.618 2°35.661 13.7 342 17.5 102630 44
2009-09-09 10:23 51°15.769 2°35.58 15.3 340 17.4 102640 44
2009-09-09 10:24 51°15.924 2°35.495 13.5 341 17.3 102630 43
2009-09-09 10:25 51°16.077 2°35.413 14.8 341 17.4 102630 44
2009-09-09 10:26 51°16.227 2°35.331 13.6 341 17.4 102640 44
2009-09-09 10:27 51°16.385 2°35.249 13.1 340 17.4 102640 43
2009-09-09 10:28 51°16.54 2°35.168 12.6 343 17.4 102640 43
2009-09-09 10:29 51°16.698 2°35.088 11.8 341 17.4 102630 44
2009-09-09 10:30 51°16.856 2°35.009 12.5 340 17.4 102640 43
2009-09-09 10:31 51°17.019 2°34.932 14.3 337 17.3 102630 43
2009-09-09 10:32 51°17.183 2°34.853 15.2 340 17.4 102640 44
2009-09-09 10:33 51°17.345 2°34.768 13.2 340 17.4 102650 43
2009-09-09 10:34 51°17.502 2°34.663 12 351 17.3 102640 42
2009-09-09 10:35 51°17.592 2°34.406 7.9 3 17.3 102640 42
2009-09-09 10:36 51°17.596 2°34.083 7.8 17 17.3 102650 43
2009-09-09 10:37 51°17.562 2°33.755 9.3 9 17.2 102660 42
2009-09-09 10:38 51°17.566 2°33.423 9.6 6 17.3 102650 42
2009-09-09 10:39 51°17.569 2°33.096 7.4 8 17.2 102650 43
2009-09-09 10:40 51°17.499 2°32.775 7.5 21 17.2 102660 42
2009-09-09 10:41 51°17.385 2°32.49 5 33 17.2 102670 42
2009-09-09 10:42 51°17.257 2°32.204 5.1 22 17.3 102670 42
2009-09-09 10:43 51°17.138 2°31.925 6.3 29 17.3 102680 41
2009-09-09 10:44 51°17.019 2°31.633 7.2 24 17.2 102670 42
2009-09-09 10:45 51°16.903 2°31.344 5.4 32 17.3 102670 42
2009-09-09 10:46 51°16.788 2°31.062 6.5 24 17.3 102670 42
2009-09-09 10:47 51°16.669 2°30.771 5.4 32 17.3 102670 40
2009-09-09 10:48 51°16.556 2°30.485 4.4 41 17.3 102680 42
2009-09-09 10:49 51°16.435 2°30.192 5.2 29 17.4 102680 43
2009-09-09 10:50 51°16.319 2°29.909 4.9 29 17.3 102670 41
2009-09-09 10:51 51°16.199 2°29.614 5.2 30 17.3 102680 40
2009-09-09 10:52 51°16.08 2°29.322 4 29 17.3 102680 42
2009-09-09 10:53 51°15.96 2°29.03 3.7 31 17.3 102690 41
2009-09-09 10:54 51°15.842 2°28.732 5.1 26 17.3 102670 42
2009-09-09 10:55 51°15.748 2°28.418 6.4 21 17.4 102680 42
2009-09-09 10:56 51°15.655 2°28.101 6.3 21 17.5 102680 41
2009-09-09 10:57 51°15.563 2°27.784 6.7 21 17.4 102680 43
2009-09-09 10:58 51°15.469 2°27.465 9.6 19 17.4 102680 43
2009-09-09 10:59 51°15.377 2°27.151 7.5 22 17.4 102680 42
2009-09-09 11:00 51°15.287 2°26.84 7.8 20 17.3 102680 42
2009-09-09 11:01 51°15.268 2°26.512 9.3 2 17.3 102680 43
2009-09-09 11:02 51°15.312 2°26.2 12.1 358 17.2 102660 42
2009-09-09 11:03 51°15.332 2°25.885 9.6 12 17.2 102660 43
2009-09-09 11:04 51°15.301 2°25.634 8.2 31 17.2 102690 42
2009-09-09 11:05 51°15.258 2°25.394 7.7 29 17.2 102690 42
2009-09-09 11:06 51°15.234 2°25.17 7.8 27 17.2 102690 42
2009-09-09 11:07 51°15.226 2°25.014 10.2 21 17.3 102700 42
2009-09-09 11:08 51°15.214 2°24.916 10.7 22 17.2 102690 42
2009-09-09 11:09 51°15.205 2°24.84 10.7 17 17.2 102690 43
2009-09-09 11:10 51°15.199 2°24.759 8.5 13 17.2 102690 41
2009-09-09 11:11 51°15.214 2°24.665 8.1 4 17.2 102680 42
2009-09-09 11:12 51°15.233 2°24.593 10.4 350 17.3 102690 43
2009-09-09 11:13 51°15.239 2°24.536 7.7 356 17.1 102680 41
2009-09-09 11:14 51°15.23 2°24.483 9.2 5 17.1 102690 42
2009-09-09 11:15 51°15.228 2°24.411 9.8 360 17.1 102690 42
2009-09-09 11:16 51°15.256 2°24.327 9.8 351 17.1 102670 41
2009-09-09 11:17 51°15.301 2°24.266 12.2 347 17.2 102680 42
2009-09-09 11:18 51°15.347 2°24.201 12.6 351 17.1 102650 41
2009-09-09 11:19 51°15.392 2°24.135 9.2 355 17.1 102660 41
2009-09-09 11:20 51°15.429 2°24.044 9.8 355 17.1 102680 42
2009-09-09 11:21 51°15.468 2°23.958 12 351 17.1 102670 41
2009-09-09 11:22 51°15.514 2°23.91 11 337 17.1 102670 42
2009-09-09 11:23 51°15.556 2°23.912 10 331 17.1 102680 41
2009-09-09 11:24 51°15.586 2°23.951 10.6 317 17.1 102670 40
2009-09-09 11:25 51°15.602 2°24.02 13.4 30 17.2 102670 40
2009-09-09 11:26 51°15.615 2°24.088 10.5 315 17.1 102670 40
2009-09-09 11:27 51°15.631 2°24.156 13 318 17.2 102670 41
2009-09-09 11:28 51°15.649 2°24.221 13.3 318 17.2 102680 41
2009-09-09 11:29 51°15.665 2°24.282 11.2 317 17.2 102670 40
2009-09-09 11:30 51°15.683 2°24.343 10.5 318 17.3 102670 42
2009-09-09 11:31 51°15.701 2°24.408 11.5 318 17.2 102670 41
2009-09-09 11:32 51°15.725 2°24.468 11 319 17.2 102670 42
2009-09-09 11:33 51°15.752 2°24.528 12.3 317 17.2 102670 41
2009-09-09 11:34 51°15.776 2°24.589 12.9 319 17.3 102670 40
2009-09-09 11:35 51°15.802 2°24.64 10.7 323 17.3 102680 42
2009-09-09 11:36 51°15.837 2°24.684 12 324 17.2 102680 41
2009-09-09 11:37 51°15.874 2°24.729 10.8 327 17.3 102680 42
2009-09-09 11:38 51°15.909 2°24.772 10.5 325 17.3 102680 42
2009-09-09 11:39 51°15.944 2°24.817 13.9 322 17.3 102680 42
2009-09-09 11:40 51°15.98 2°24.867 12.5 322 17.3 102680 41
2009-09-09 11:41 51°16.017 2°24.916 10.5 321 17.3 102680 42
2009-09-09 11:42 51°16.05 2°24.963 12 324 17.3 102680 40
2009-09-09 11:43 51°16.082 2°25.014 11.5 321 17.3 102680 41
2009-09-09 11:44 51°16.117 2°25.064 11.8 323 17.3 102680 41
2009-09-09 11:45 51°16.151 2°25.11 12 324 17.3 102680 41
2009-09-09 11:46 51°16.188 2°25.153 11.7 333 17.3 102690 41
2009-09-09 11:47 51°16.236 2°25.154 10.6 338 17.4 102690 42
2009-09-09 11:48 51°16.287 2°25.122 9.2 350 17.3 102690 42
2009-09-09 11:49 51°16.328 2°25.053 10.2 358 17.2 102680 42
2009-09-09 11:50 51°16.356 2°24.951 10.6 8 17.2 102680 41
2009-09-09 11:51 51°16.361 2°24.822 8.5 19 17.2 102690 42
2009-09-09 11:52 51°16.339 2°24.684 8.6 24 17.2 102690 43
2009-09-09 11:53 51°16.315 2°24.561 9 21 17.2 102690 43
2009-09-09 11:54 51°16.306 2°24.457 11.6 15 17.2 102700 44
2009-09-09 11:55 51°16.291 2°24.357 11.3 20 17.1 102690 43
2009-09-09 11:56 51°16.276 2°24.257 9.6 21 17.1 102700 44
2009-09-09 11:57 51°16.263 2°24.156 10.5 19 17.1 102700 44
2009-09-09 11:58 51°16.255 2°24.06 10.3 12 17.1 102690 42
2009-09-09 11:59 51°16.25 2°23.982 6.9 6 17.2 102710 44
2009-09-09 12:00 51°16.247 2°23.9 7.1 6 17.2 102700 45
2009-09-09 12:01 51°16.236 2°23.829 12.4 10 17.1 102700 44
2009-09-09 12:02 51°16.227 2°23.765 11.2 357 17 102710 44
2009-09-09 12:03 51°16.254 2°23.747 11.2 317 17 102690 44
2009-09-09 12:04 51°16.244 2°23.877 13.8 234 17.1 102670 44
2009-09-09 12:05 51°16.24 2°24.119 13.5 25 17.2 102680 44
2009-09-09 12:06 51°16.227 2°24.375 13.1 25 17.3 102660 42
2009-09-09 12:07 51°16.209 2°24.639 12.7 27 17.3 102690 44
2009-09-09 12:08 51°16.197 2°24.907 13.4 36 17.2 102670 43
2009-09-09 12:09 51°16.185 2°25.166 11.3 35 17.3 102690 43
2009-09-09 12:10 51°16.172 2°25.305 10.5 241 17.4 102700 43
2009-09-09 12:11 51°16.158 2°25.395 12.1 23 17.4 102700 43
2009-09-09 12:12 51°16.143 2°25.467 11.9 245 17.5 102710 43
2009-09-09 12:13 51°16.125 2°25.487 10.8 22 17.4 102710 43
2009-09-09 12:14 51°16.104 2°25.481 9.7 247 17.4 102710 41
2009-09-09 12:15 51°16.08 2°25.473 10.6 251 17.4 102710 44
2009-09-09 12:16 51°16.06 2°25.46 10.8 256 17.4 102720 43
2009-09-09 12:17 51°16.039 2°25.446 8.9 262 17.4 102730 42
2009-09-09 12:18 51°16.017 2°25.432 6.7 263 17.4 102720 44
2009-09-09 12:19 51°15.996 2°25.417 7.3 265 17.3 102740 43
2009-09-09 12:20 51°15.963 2°25.427 12.9 256 17.3 102730 44
2009-09-09 12:21 51°15.913 2°25.57 12.4 246 17.3 102710 43
2009-09-09 12:22 51°15.855 2°25.787 11.6 22 17.3 102710 43
2009-09-09 12:23 51°15.795 2°26.045 12.2 26 17.4 102700 44
2009-09-09 12:24 51°15.767 2°26.312 13 21 17.3 102700 43
2009-09-09 12:25 51°15.757 2°26.583 12.5 23 17.4 102700 43
2009-09-09 12:26 51°15.758 2°26.858 11.1 22 17.3 102690 42
2009-09-09 12:27 51°15.777 2°27.12 13.7 23 17.3 102690 41
2009-09-09 12:28 51°15.812 2°27.37 15.9 22 17.3 102690 43
2009-09-09 12:29 51°15.867 2°27.619 14.9 23 17.2 102680 42
2009-09-09 12:30 51°15.918 2°27.858 13.6 316 17.3 102690 43
2009-09-09 12:31 51°15.97 2°28.11 14.6 25 17.3 102700 44
2009-09-09 12:32 51°16.018 2°28.355 14.7 315 17.2 102700 42
2009-09-09 12:33 51°16.067 2°28.603 13.5 317 17.3 102700 43
2009-09-09 12:34 51°16.119 2°28.852 14.9 25 17.3 102700 42
2009-09-09 12:35 51°16.167 2°29.102 13.1 23 17.2 102700 42
2009-09-09 12:36 51°16.216 2°29.346 12.7 315 17.3 102700 44
2009-09-09 12:37 51°16.237 2°29.485 12.2 27 17.2 102710 43
2009-09-09 12:38 51°16.233 2°29.53 12 24 17.3 102730 43
2009-09-09 12:39 51°16.209 2°29.534 11.1 28 17.2 102710 44
2009-09-09 12:40 51°16.183 2°29.527 10 253 17.3 102730 43
2009-09-09 12:41 51°16.155 2°29.515 9.3 262 17.3 102750 43
2009-09-09 12:42 51°16.128 2°29.502 6 264 17.3 102750 43
2009-09-09 12:43 51°16.103 2°29.491 5.9 264 17.5 102740 43
2009-09-09 12:44 51°16.076 2°29.515 11.4 23 17.3 102740 43
2009-09-09 12:45 51°16.087 2°29.565 11.8 335 17.4 102730 44
2009-09-09 12:46 51°16.164 2°29.651 14.5 320 17.4 102730 42
2009-09-09 12:47 51°16.253 2°29.817 15 319 17.4 102710 43
2009-09-09 12:48 51°16.341 2°30.034 14.7 315 17.4 102690 42
2009-09-09 12:49 51°16.426 2°30.276 12.6 318 17.4 102690 43
2009-09-09 12:50 51°16.511 2°30.504 12.6 318 17.4 102700 43
2009-09-09 12:51 51°16.587 2°30.754 14.4 35 17.3 102700 42
2009-09-09 12:52 51°16.663 2°30.998 17.2 37 17.3 102700 43
2009-09-09 12:53 51°16.739 2°31.244 14.6 317 17.3 102700 43
2009-09-09 12:54 51°16.843 2°31.46 13.7 322 17.3 102720 43
2009-09-09 12:55 51°16.962 2°31.646 13.1 327 17.3 102700 43
2009-09-09 12:56 51°17.082 2°31.838 16.5 325 17.3 102710 43
2009-09-09 12:57 51°17.198 2°32.03 14.9 325 17.3 102710 43
2009-09-09 12:58 51°17.305 2°32.241 13.1 319 17.3 102710 43
2009-09-09 12:59 51°17.383 2°32.484 13.5 318 17.3 102710 42
2009-09-09 13:00 51°17.461 2°32.74 13.9 37 17.3 102720 42
2009-09-09 13:01 51°17.538 2°32.981 14.3 320 17.3 102700 43
2009-09-09 13:02 51°17.625 2°33.231 16.7 322 17.3 102720 43
2009-09-09 13:03 51°17.71 2°33.471 16.1 317 17.3 102690 42
2009-09-09 13:04 51°17.798 2°33.712 17 318 17.4 102710 43
2009-09-09 13:05 51°17.886 2°33.956 15.9 319 17.4 102720 42
2009-09-09 13:06 51°17.976 2°34.201 13.6 319 17.4 102720 42
2009-09-09 13:07 51°18.065 2°34.442 14 319 17.5 102710 42
2009-09-09 13:08 51°18.154 2°34.686 16.9 320 17.5 102720 43
2009-09-09 13:09 51°18.241 2°34.927 17.1 316 17.4 102700 42
2009-09-09 13:10 51°18.329 2°35.174 14.6 316 17.3 102700 42
2009-09-09 13:11 51°18.419 2°35.421 15.8 316 17.4 102710 43
2009-09-09 13:12 51°18.509 2°35.668 17 318 17.4 102700 42
2009-09-09 13:13 51°18.598 2°35.915 14.2 318 17.3 102710 42
2009-09-09 13:14 51°18.652 2°36.086 13.3 316 17.3 102720 43
2009-09-09 13:15 51°18.679 2°36.191 13.2 35 17.3 102710 41
2009-09-09 13:16 51°18.696 2°36.274 11.7 32 17.3 102720 43
2009-09-09 13:17 51°18.687 2°36.3 11 26 17.4 102740 43
2009-09-09 13:18 51°18.67 2°36.303 11 254 17.3 102750 42
2009-09-09 13:19 51°18.654 2°36.306 7.9 262 17.3 102760 43
2009-09-09 13:20 51°18.638 2°36.309 5.9 265 17.3 102750 42
2009-09-09 13:21 51°18.623 2°36.31 7.4 265 17.3 102760 43
2009-09-09 13:22 51°18.6 2°36.334 8.6 260 17.3 102750 43
2009-09-09 13:23 51°18.558 2°36.491 13.4 243 17.2 102730 42
2009-09-09 13:24 51°18.488 2°36.714 9.6 252 17.3 102730 44
2009-09-09 13:25 51°18.373 2°36.938 9.9 22 17.3 102730 43
2009-09-09 13:26 51°18.26 2°37.177 9.8 249 17.4 102730 43
2009-09-09 13:27 51°18.141 2°37.408 8.7 248 17.3 102720 43
2009-09-09 13:28 51°18.017 2°37.631 9.8 20 17.4 102730 44
2009-09-09 13:29 51°17.897 2°37.857 11.5 248 17.4 102740 43
2009-09-09 13:30 51°17.777 2°38.082 12.6 248 17.4 102730 44
2009-09-09 13:31 51°17.658 2°38.311 9.9 250 17.4 102740 42
2009-09-09 13:32 51°17.558 2°38.517 12.3 253 17.4 102730 43
2009-09-09 13:33 51°17.535 2°38.602 10.2 254 17.4 102740 42
2009-09-09 13:34 51°17.524 2°38.621 10.4 259 17.4 102740 42
2009-09-09 13:35 51°17.512 2°38.627 9 267 17.3 102750 42
2009-09-09 13:36 51°17.502 2°38.636 7.1 262 17.3 102750 44
2009-09-09 13:37 51°17.491 2°38.645 5.8 264 17.3 102760 43
2009-09-09 13:38 51°17.481 2°38.653 10 261 17.4 102750 43
2009-09-09 13:39 51°17.467 2°38.673 12.1 257 17.3 102740 41
2009-09-09 13:40 51°17.433 2°38.791 10.1 255 17.3 102720 43
2009-09-09 13:41 51°17.325 2°38.917 6.7 261 17.3 102750 42
2009-09-09 13:42 51°17.196 2°39.032 6.1 269 17.3 102740 43
2009-09-09 13:43 51°17.021 2°39.095 4.8 267 17.3 102750 43
2009-09-09 13:44 51°16.836 2°39.14 6.4 268 17.3 102750 42
2009-09-09 13:45 51°16.653 2°39.188 6.4 31 17.3 102750 44
2009-09-09 13:46 51°16.473 2°39.237 6.3 270 17.3 102750 44
2009-09-09 13:47 51°16.292 2°39.286 4.8 267 17.3 102750 41
2009-09-09 13:48 51°16.113 2°39.328 5.2 269 17.2 102750 43
2009-09-09 13:49 51°15.935 2°39.379 5.7 36 17.3 102750 43
2009-09-09 13:50 51°15.756 2°39.431 8 23 17.3 102760 43
2009-09-09 13:51 51°15.578 2°39.45 4.5 37 17.3 102750 42
2009-09-09 13:52 51°15.401 2°39.414 3.7 39 17.4 102760 44
2009-09-09 13:53 51°15.226 2°39.37 4.9 38 17.4 102760 43
2009-09-09 13:54 51°15.049 2°39.333 5.4 35 17.3 102760 43
2009-09-09 13:55 51°14.902 2°39.321 10.5 38 17.3 102770 42
2009-09-09 13:56 51°14.856 2°39.378 7.1 262 17.3 102770 44
2009-09-09 13:57 51°14.849 2°39.394 7.1 264 17.3 102760 45
2009-09-09 13:58 51°14.843 2°39.401 7.6 265 17.3 102770 43
2009-09-09 13:59 51°14.835 2°39.414 6.2 265 17.2 102770 44
2009-09-09 14:00 51°14.808 2°39.5 12.6 247 17.3 102750 44
2009-09-09 14:01 51°14.802 2°39.64 11.9 238 17.3 102720 43
2009-09-09 14:02 51°14.795 2°39.687 14.7 256 17.3 102730 43
2009-09-09 14:03 51°14.786 2°39.708 8.8 261 17.3 102770 42
2009-09-09 14:04 51°14.777 2°39.728 9.9 261 17.3 102760 43
2009-09-09 14:05 51°14.77 2°39.748 12.1 260 17.4 102770 44
2009-09-09 14:06 51°14.76 2°39.767 14.4 258 17.4 102770 44
2009-09-09 14:07 51°14.752 2°39.784 12 256 17.3 102760 43
2009-09-09 14:08 51°14.745 2°39.8 12.6 257 17.3 102760 44
2009-09-09 14:09 51°14.734 2°39.823 12.3 257 17.3 102770 43
2009-09-09 14:10 51°14.699 2°39.966 12.7 242 17.4 102730 43
2009-09-09 14:11 51°14.642 2°40.245 14.4 243 17.4 102710 42
2009-09-09 14:12 51°14.588 2°40.542 14.1 240 17.4 102720 43
2009-09-09 14:13 51°14.563 2°40.852 13.4 35 17.4 102710 43
2009-09-09 14:14 51°14.574 2°41.162 14.3 234 17.4 102710 42
2009-09-09 14:15 51°14.546 2°41.468 14.6 242 17.4 102710 43
2009-09-09 14:16 51°14.502 2°41.776 12 239 17.4 102700 43
2009-09-09 14:17 51°14.481 2°42.084 13.4 233 17.4 102720 43
2009-09-09 14:18 51°14.486 2°42.397 13.1 33 17.4 102700 43
2009-09-09 14:19 51°14.527 2°42.702 16.9 37 17.4 102700 42
2009-09-09 14:20 51°14.585 2°42.999 15.7 319 17.3 102680 42
2009-09-09 14:21 51°14.67 2°43.28 15 316 17.3 102700 42
2009-09-09 14:22 51°14.755 2°43.558 15.9 318 17.3 102700 42
2009-09-09 14:23 51°14.843 2°43.848 13 38 17.3 102700 42
2009-09-09 14:24 51°14.928 2°44.129 14.8 317 17.4 102700 43
2009-09-09 14:25 51°15.012 2°44.422 14.9 38 17.3 102710 43
2009-09-09 14:26 51°15.093 2°44.706 13.4 38 17.3 102690 42
2009-09-09 14:27 51°15.14 2°44.871 11 36 17.3 102720 43
2009-09-09 14:28 51°15.158 2°44.937 9.3 323 17.3 102740 42
2009-09-09 14:29 51°15.151 2°44.963 8.8 231 17.2 102730 43
2009-09-09 14:30 51°15.146 2°44.982 9.7 248 17.2 102730 43
2009-09-09 14:31 51°15.144 2°45.004 12.2 259 17.4 102750 43
2009-09-09 14:32 51°15.141 2°45.028 6.5 264 17.4 102750 42
2009-09-09 14:33 51°15.139 2°45.053 5.9 262 17.3 102750 42
2009-09-09 14:34 51°15.135 2°45.083 12 258 17.3 102750 44
2009-09-09 14:35 51°15.132 2°45.113 9.5 259 17.4 102740 43
2009-09-09 14:36 51°15.128 2°45.145 11.1 249 17.3 102740 43
2009-09-09 14:37 51°15.122 2°45.229 10 245 17.4 102740 44
2009-09-09 14:38 51°15.133 2°45.412 12.3 237 17.4 102720 43
2009-09-09 14:39 51°15.138 2°45.646 12.3 31 17.4 102710 42
2009-09-09 14:40 51°15.136 2°45.945 13.2 239 17.4 102710 43
2009-09-09 14:41 51°15.129 2°46.269 15.3 233 17.5 102700 43
2009-09-09 14:42 51°15.12 2°46.591 13.7 35 17.4 102700 43
2009-09-09 14:43 51°15.114 2°46.91 14.8 24 17.4 102700 42
2009-09-09 14:44 51°15.107 2°47.228 12.2 233 17.4 102700 43
2009-09-09 14:45 51°15.099 2°47.547 14.1 36 17.4 102680 43
2009-09-09 14:46 51°15.091 2°47.865 13.2 234 17.4 102690 43
2009-09-09 14:47 51°15.082 2°48.186 13.9 35 17.4 102690 43
2009-09-09 14:48 51°15.079 2°48.513 12.1 234 17.4 102700 43
2009-09-09 14:49 51°15.071 2°48.827 13.2 33 17.4 102680 43
2009-09-09 14:50 51°15.054 2°49.146 14.8 25 17.4 102690 43
2009-09-09 14:51 51°15.029 2°49.464 15.5 25 17.4 102700 42
2009-09-09 14:52 51°15.007 2°49.782 13.1 28 17.4 102700 43
2009-09-09 14:53 51°15 2°50.1 12.9 22 17.3 102680 42
2009-09-09 14:54 51°14.995 2°50.419 14.8 24 17.3 102690 42
2009-09-09 14:55 51°14.989 2°50.735 12.1 26 17.4 102700 43
2009-09-09 14:56 51°14.984 2°51.049 15.2 21 17.4 102690 43
2009-09-09 14:57 51°14.976 2°51.364 15.5 28 17.5 102690 43
2009-09-09 14:58 51°14.967 2°51.674 15.2 24 17.5 102700 43
2009-09-09 14:59 51°14.959 2°51.991 11.5 24 17.5 102680 41
2009-09-09 15:00 51°14.947 2°52.297 12.9 22 17.4 102690 42
2009-09-09 15:01 51°14.917 2°52.603 11.9 27 17.5 102690 43
2009-09-09 15:02 51°14.888 2°52.913 15.8 25 17.4 102700 42
2009-09-09 15:03 51°14.865 2°53.228 13.3 25 17.4 102710 43
2009-09-09 15:04 51°14.823 2°53.537 12.4 28 17.4 102710 42
2009-09-09 15:05 51°14.758 2°53.825 13.2 29 17.5 102710 43
2009-09-09 15:06 51°14.696 2°54.115 12 21 17.5 102710 43
2009-09-09 15:07 51°14.613 2°54.393 13.7 249 17.5 102720 42
2009-09-09 15:08 51°14.524 2°54.662 9.9 252 17.4 102720 43
2009-09-09 15:09 51°14.424 2°54.923 11.5 21 17.5 102730 44
2009-09-09 15:10 51°14.308 2°55.163 10 247 17.5 102730 43
2009-09-09 15:11 51°14.192 2°55.347 9 257 17.5 102740 43
2009-09-09 15:12 51°14.067 2°55.449 4.2 257 17.4 102760 42
2009-09-09 15:13 51°13.949 2°55.536 4.2 261 17.4 102760 44
2009-09-09 15:14 51°13.84 2°55.617 4.2 262 17.5 102750 42
2009-09-09 15:15 51°13.754 2°55.721 5.6 251 17.5 102750 41
2009-09-09 15:16 51°13.703 2°55.826 5.3 253 17.6 102760 43
2009-09-09 15:17 51°13.673 2°55.919 10.1 253 17.7 102750 43
2009-09-09 15:18 51°13.662 2°55.956 2.9 265 17.7 102760 41